Latest Coastal Weather Observations for Hogan Island

IDV60701

Issued at 1:12 am EST Thursday 3 September 2026 (issued every 10 minutes, with the page automatically refreshed every 10 minutes)

About coastal observations | Map of coastal stations | Coastal observations for VIC | Marine services | Other Formats
Station Details ID: 200838 Name: HOGAN ISLAND Lat: -39.22 Lon: 146.98 Height: 116.0 m
Data from the previous 72 hours. | See also: Recent months at Hogan Island
Date/Time
EST
Wind Sea
Height
m
Swell Vis
km
Cloud Weather Temp
°C
Press
MSL
hPa
Rain since
9am
mm
Dir  Spd
kts
Gust
kts
Height
m
Period
s
Dir
03/01:00am NW 24 29 - - - - - - - 11.7 1007.2 0.0
03/12:30am NW 22 27 - - - - - - - 11.7 1007.6 0.0
03/12:00am NW 23 27 - - - - - - - 11.8 1007.9 0.0
 
Date/Time
EST
Wind Sea
Height
m
Swell Vis
km
Cloud Weather Temp
°C
Press
MSL
hPa
Rain since
9am
mm
Dir  Spd
kts
Gust
kts
Height
m
Period
s
Dir
02/11:30pm NW 21 25 - - - - - - - 11.7 1008.3 0.0
02/11:00pm NW 22 25 - - - - - - - 11.8 1008.7 0.0
02/10:30pm NW 22 25 - - - - - - - 11.8 1009.1 0.0
02/10:00pm WNW 25 28 - - - - - - - 12.2 1009.3 0.0
02/09:30pm WNW 22 25 - - - - - - - 12.0 1009.8 0.0
02/09:00pm WNW 23 27 - - - - - - - 12.0 1009.7 0.0
02/08:30pm WNW 25 30 - - - - - - - 11.9 1009.6 0.0
02/08:00pm WNW 24 28 - - - - - - - 11.8 1009.6 0.0
02/07:30pm WNW 28 32 - - - - - - - 11.7 1009.2 0.0
02/07:00pm W 28 33 - - - - - - - 11.9 1009.1 0.0
02/06:30pm W 28 31 - - - - - - - 11.9 1009.1 0.0
02/06:00pm W 28 32 - - - - - - - 11.9 1009.0 0.0
02/05:30pm W 29 33 - - - - - - - 12.0 1009.1 0.0
02/05:00pm W 26 31 - - - - - - - 12.5 1009.6 0.0
02/04:30pm W 28 31 - - - - - - - 12.6 1009.8 0.0
02/04:00pm W 29 34 - - - - - - - 12.9 1009.9 0.0
02/03:30pm W 23 27 - - - - - - - 13.2 1010.2 0.0
02/03:00pm W 26 30 - - - - - - - 13.3 1010.2 0.0
02/02:30pm W 26 31 - - - - - - - 13.6 1010.3 0.0
02/02:00pm W 26 30 - - - - - - - 13.9 1010.7 0.0
02/01:30pm W 27 32 - - - - - - - 12.9 1011.0 0.0
02/01:00pm W 29 33 - - - - - - - 13.4 1011.2 0.0
02/12:30pm W 26 30 - - - - - - - 13.8 1011.5 0.0
02/12:00pm W 25 31 - - - - - - - 13.1 1011.9 0.0
02/11:30am W 27 31 - - - - - - - 13.2 1012.1 0.0
02/11:00am W 28 34 - - - - - - - 13.2 1012.2 0.0
02/10:30am W 27 33 - - - - - - - 13.0 1012.4 0.0
02/10:00am W 26 31 - - - - - - - 12.8 1012.7 0.0
02/09:30am W 26 32 - - - - - - - 12.3 1012.9 0.0
02/09:00am W 26 31 - - - - - - - 12.4 1012.7 0.2
02/08:30am W 26 30 - - - - - - - 12.0 1012.6 0.2
02/08:00am W 24 29 - - - - - - - 11.7 1012.5 0.2
02/07:30am W 27 32 - - - - - - - 11.5 1011.9 0.2
02/07:00am W 27 32 - - - - - - - 11.5 1011.7 0.2
02/06:30am W 29 33 - - - - - - - 11.6 1011.1 0.2
02/06:00am W 28 32 - - - - - - - 11.4 1010.8 0.2
02/05:30am W 27 30 - - - - - - - 11.6 1010.6 0.2
02/05:00am W 27 31 - - - - - - - 11.6 1010.2 0.2
02/04:30am W 25 30 - - - - - - - 11.8 1010.1 0.2
02/04:00am WSW 25 29 - - - - - - - 11.7 1009.8 0.2
02/03:30am W 24 28 - - - - - - - 12.0 1009.7 0.2
02/03:00am WSW 27 32 - - - - - - Rain 11.6 1009.4 0.2
02/02:30am WNW 35 42 - - - - - - - 13.7 1008.6 0.0
02/02:20am WNW 33 39 - - - - - - - 13.7 1008.7 0.0
02/02:00am WNW 26 30 - - - - - - - 13.3 1009.3 0.0
02/01:41am WNW 29 34 - - - - - - - 13.3 1009.2 0.0
02/01:30am WNW 35 44 - - - - - - - 13.3 1009.2 0.0
02/01:19am WNW 31 41 - - - - - - - 13.6 1008.7 0.0
02/01:00am WNW 33 39 - - - - - - - 13.8 1008.5 0.0
02/12:30am WNW 33 38 - - - - - - - 14.1 1008.7 0.0
02/12:00am WNW 33 38 - - - - - - - 14.4 1008.9 0.0
 
Date/Time
EST
Wind Sea
Height
m
Swell Vis
km
Cloud Weather Temp
°C
Press
MSL
hPa
Rain since
9am
mm
Dir  Spd
kts
Gust
kts
Height
m
Period
s
Dir
01/11:51pm WNW 31 36 - - - - - - - 14.5 1008.8 0.0
01/11:37pm WNW 36 46 - - - - - - - 14.8 1008.8 0.0
01/11:36pm WNW 37 46 - - - - - - - 14.8 1008.9 0.0
01/11:30pm WNW 37 46 - - - - - - - 14.9 1008.6 0.0
01/11:26pm NW 35 43 - - - - - - - 15.2 1008.9 0.0
01/11:00pm NW 27 33 - - - - - - - 15.0 1009.4 0.0
01/10:30pm NW 28 33 - - - - - - - 15.0 1009.3 0.0
01/10:00pm NW 31 38 - - - - - - - 15.6 1009.7 0.0
01/09:30pm NW 27 34 - - - - - - - 16.1 1009.9 0.0
01/09:00pm NW 24 30 - - - - - - - 16.2 1010.1 0.0
01/08:30pm NW 25 29 - - - - - - - 15.5 1010.1 0.0
01/08:00pm NW 23 27 - - - - - - - 15.5 1010.4 0.0
01/07:30pm NW 26 30 - - - - - - - 15.6 1010.6 0.0
01/07:00pm NW 29 37 - - - - - - - 16.0 1010.7 0.0
01/06:43pm NW 29 37 - - - - - - - 16.4 1010.6 0.0
01/06:30pm NW 28 38 - - - - - - - 16.7 1010.5 0.0
01/06:29pm NW 28 38 - - - - - - - 16.6 1010.5 0.0
01/06:00pm NW 27 35 - - - - - - - 16.9 1010.6 0.0
01/05:30pm NW 27 33 - - - - - - - 16.8 1010.9 0.0
01/05:00pm NW 29 36 - - - - - - - 17.3 1010.6 0.0
01/04:30pm NW 28 33 - - - - - - - 16.8 1010.8 0.0
01/04:07pm NW 30 36 - - - - - - - 17.2 1010.7 0.0
01/04:00pm NW 28 36 - - - - - - - 17.1 1010.7 0.0
01/03:57pm NW 25 34 - - - - - - - 16.9 1010.8 0.0
01/03:30pm NNW 19 24 - - - - - - - 16.4 1011.6 0.0
01/03:00pm NNW 13 16 - - - - - - - 16.6 1012.0 0.0
01/02:30pm NNW 14 18 - - - - - - - 17.9 1012.3 0.0
01/02:00pm N 14 17 - - - - - - - 17.6 1012.8 0.0
01/01:30pm NNE 11 13 - - - - - - - 16.8 1013.5 0.0
01/01:00pm N 10 13 - - - - - - - 17.5 1014.4 0.0
01/12:30pm NNW 7 8 - - - - - - - 16.9 1015.3 0.0
01/12:00pm NNW 8 9 - - - - - - - 16.9 1016.1 0.0
01/11:30am NNW 6 9 - - - - - - - 16.6 1016.6 0.0
01/11:00am NW 6 8 - - - - - - - 16.3 1017.4 0.0
01/10:30am WNW 7 12 - - - - - - - 15.3 1017.8 0.0
01/10:00am NW 13 15 - - - - - - - 15.4 1018.0 0.0
01/09:30am NNW 14 17 - - - - - - - 14.4 1018.5 0.0
01/09:00am NNW 11 14 - - - - - - - 13.3 1018.9 0.2
01/08:30am N 10 13 - - - - - - - 13.1 1019.6 0.2
01/08:00am NNW 11 13 - - - - - - - 12.3 1019.8 0.2
01/07:30am N 9 11 - - - - - - - 12.0 1020.1 0.2
01/07:00am NNW 9 11 - - - - - - - 11.7 1020.1 0.2
01/06:30am NNW 10 12 - - - - - - - 11.6 1020.1 0.0
01/06:00am NNW 10 13 - - - - - - - 12.0 1020.2 0.0
01/05:30am N 10 12 - - - - - - - 11.0 1020.4 0.0
01/05:00am N 9 11 - - - - - - - 11.1 1020.7 0.0
01/04:30am N 10 13 - - - - - - - 11.0 1021.1 0.0
01/04:00am N 11 14 - - - - - - - 11.2 1021.2 0.0
01/03:30am N 9 12 - - - - - - - 11.0 1021.4 0.0
01/03:00am N 11 14 - - - - - - - 10.9 1021.7 0.0
01/02:30am NNE 13 15 - - - - - - - 10.5 1022.5 0.0
01/02:00am NNE 13 15 - - - - - - - 10.5 1023.0 0.0
01/01:30am N 13 16 - - - - - - - 10.5 1023.6 0.0
01/01:00am N 13 15 - - - - - - - 10.6 1024.0 0.0
01/12:30am N 14 16 - - - - - - - 10.6 1024.3 0.0
01/12:00am N 13 15 - - - - - - - 10.7 1024.8 0.0
 
Date/Time
EST
Wind Sea
Height
m
Swell Vis
km
Cloud Weather Temp
°C
Press
MSL
hPa
Rain since
9am
mm
Dir  Spd
kts
Gust
kts
Height
m
Period
s
Dir
31/11:30pm N 12 17 - - - - - - - 10.7 1025.1 0.0
31/11:00pm N 11 14 - - - - - - - 10.2 1025.8 0.0
31/10:30pm NNW 11 13 - - - - - - - 10.4 1026.0 0.0
31/10:00pm NW 10 13 - - - - - - - 10.1 1026.2 0.0
31/09:30pm WNW 11 12 - - - - - - - 10.0 1026.4 0.0
31/09:00pm WNW 11 12 - - - - - - - 9.9 1026.4 0.0
31/08:30pm W 11 13 - - - - - - - 9.8 1026.6 0.0
31/08:00pm W 13 15 - - - - - - - 9.8 1026.9 0.0
31/07:30pm W 15 17 - - - - - - - 9.8 1027.0 0.0
31/07:00pm W 15 18 - - - - - - - 9.8 1027.1 0.0
31/06:30pm WSW 16 19 - - - - - - - 9.9 1027.2 0.0
31/06:00pm W 17 21 - - - - - - - 10.1 1027.4 0.0
31/05:30pm WSW 18 21 - - - - - - - 10.6 1027.5 0.0
31/05:00pm WSW 19 22 - - - - - - - 11.2 1027.4 0.0
31/04:30pm W 19 22 - - - - - - - 12.0 1027.6 0.0
31/04:00pm WSW 20 23 - - - - - - - 11.9 1027.7 0.0
31/03:30pm W 20 22 - - - - - - - 12.5 1028.0 0.0
31/03:00pm W 21 24 - - - - - - - 12.9 1028.3 0.0
31/02:30pm W 22 26 - - - - - - - 12.5 1028.4 0.0
31/02:00pm W 21 25 - - - - - - - 12.5 1028.6 0.0
31/01:30pm W 23 26 - - - - - - - 12.5 1028.8 0.0
31/01:00pm W 23 27 - - - - - - - 13.1 1029.2 0.0
31/12:30pm W 24 28 - - - - - - - 12.7 1029.5 0.0
31/12:00pm W 24 28 - - - - - - - 12.5 1029.8 0.0
31/11:30am W 25 29 - - - - - - - 12.6 1030.2 0.0
31/11:00am W 24 29 - - - - - - - 12.2 1030.3 0.0
31/10:30am W 24 29 - - - - - - - 12.2 1030.4 0.0
31/10:00am W 25 29 - - - - - - - 11.9 1030.5 0.0
31/09:30am WSW 24 28 - - - - - - - 11.7 1030.6 0.0
31/09:00am W 27 31 - - - - - - - 11.6 1030.4 0.0
31/08:30am W 26 32 - - - - - - - 11.7 1030.6 0.0
31/08:00am W 26 30 - - - - - - - 11.2 1030.4 0.0
31/07:30am W 27 31 - - - - - - - 10.9 1030.0 0.0
31/07:00am W 28 32 - - - - - - - 10.9 1029.8 0.0
31/06:30am W 27 31 - - - - - - - 10.6 1029.6 0.0
31/06:00am W 28 33 - - - - - - - 10.7 1029.5 0.0
31/05:30am W 29 33 - - - - - - - 10.6 1029.4 0.0
31/05:00am W 28 32 - - - - - - - 10.6 1029.4 0.0
31/04:30am W 29 34 - - - - - - - 10.6 1029.3 0.0
31/04:00am W 29 34 - - - - - - - 10.6 1029.0 0.0
31/03:30am W 27 33 - - - - - - - 10.5 1029.4 0.0
31/03:00am WSW 28 33 - - - - - - - 10.6 1029.5 0.0
31/02:30am W 27 31 - - - - - - - 10.8 1029.7 0.0
31/02:00am W 27 33 - - - - - - - 10.9 1029.9 0.0
31/01:30am W 29 34 - - - - - - - 10.6 1030.0 0.0

Other formats

Comma delimited format used in spreadsheet applications
http://www.bom.gov.au/fwo/IDV60701/IDV60701.94949.axf

JavaScript Object Notation format (JSON) in row-major order
http://www.bom.gov.au/fwo/IDV60701/IDV60701.94949.json

Data quality

Most of these data are generated automatically and are frequently updated. Quality checks on data are not normally performed. It is possible for incorrect values to appear. Refer to information at About Latest Weather Observations and please check the disclaimer before using these data.